createdAt,value
2023-04-17T00:01:44.085Z,95718.69
2023-04-17T00:04:30.891Z,95718.44
2023-04-17T00:07:16.580Z,95730.44
2023-04-17T00:10:01.995Z,95720.59
2023-04-17T00:12:47.398Z,95727.75
2023-04-17T00:15:32.749Z,95731.44
2023-04-17T00:18:17.988Z,95731.06
2023-04-17T00:21:03.690Z,95725.91
2023-04-17T00:23:48.879Z,95724.34
2023-04-17T00:26:34.728Z,95719.53
2023-04-17T00:29:20.008Z,95725.03
2023-04-17T00:32:05.650Z,95726.31
2023-04-17T00:34:52.231Z,95728.16
2023-04-17T00:37:39.031Z,95729.06
2023-04-17T00:40:24.764Z,95732.31
2023-04-17T00:43:10.217Z,95727.94
2023-04-17T00:45:55.596Z,95728.75
2023-04-17T00:48:41.714Z,95723.16
2023-04-17T00:51:27.591Z,95723.97
2023-04-17T00:54:12.833Z,95720.41
2023-04-17T00:56:59.033Z,95729.75
2023-04-17T00:59:44.615Z,95718.84
2023-04-17T01:02:30.233Z,95721.31
2023-04-17T01:05:15.850Z,95719.34
2023-04-17T01:08:01.418Z,95710.50
2023-04-17T01:10:46.463Z,95713.97
2023-04-17T01:13:31.663Z,95711.75
2023-04-17T01:16:17.520Z,95704.47
2023-04-17T01:19:02.719Z,95707.94
2023-04-17T01:21:47.864Z,95706.91
2023-04-17T01:24:37.014Z,95703.53
2023-04-17T01:27:22.724Z,95707.78
2023-04-17T01:30:08.807Z,95709.44
2023-04-17T01:32:55.917Z,95704.38
2023-04-17T01:35:41.382Z,95705.78
2023-04-17T01:38:26.782Z,95696.06
2023-04-17T01:41:12.402Z,95695.69
2023-04-17T01:43:57.980Z,95704.63
2023-04-17T01:46:43.762Z,95696.91
2023-04-17T01:49:28.874Z,95700.56
2023-04-17T01:52:14.076Z,95698.75
2023-04-17T01:54:59.364Z,95711.53
2023-04-17T01:57:44.582Z,95694.72
2023-04-17T02:00:30.428Z,95695.75
2023-04-17T02:03:16.761Z,95701.22
2023-04-17T02:06:02.373Z,95700.78
2023-04-17T02:08:47.768Z,95703.84
2023-04-17T02:11:33.098Z,95711.63
2023-04-17T02:14:21.079Z,95704.50
2023-04-17T02:17:06.056Z,95704.78
2023-04-17T02:19:51.361Z,95699.88
2023-04-17T02:22:36.766Z,95703.53
2023-04-17T02:25:22.002Z,95701.50
2023-04-17T02:28:07.474Z,95709.63
2023-04-17T02:30:52.643Z,95698.69
2023-04-17T02:33:38.507Z,95706.00
2023-04-17T02:36:23.757Z,95704.41
2023-04-17T02:39:09.350Z,95697.94
2023-04-17T02:41:54.604Z,95699.19
2023-04-17T02:44:40.049Z,95696.72
2023-04-17T02:47:25.497Z,95692.69
2023-04-17T02:50:11.392Z,95692.88
2023-04-17T02:52:56.727Z,95693.88
2023-04-17T02:55:41.810Z,95700.38
2023-04-17T02:58:27.103Z,95693.50
2023-04-17T03:01:12.741Z,95689.00
2023-04-17T03:03:58.079Z,95695.31
2023-04-17T03:06:43.724Z,95695.31
2023-04-17T03:09:28.958Z,95695.94
2023-04-17T03:12:15.611Z,95694.69
2023-04-17T03:15:00.896Z,95692.88
2023-04-17T03:17:46.189Z,95687.41
2023-04-17T03:20:31.413Z,95689.41
2023-04-17T03:23:16.750Z,95689.03
2023-04-17T03:26:02.106Z,95689.84
2023-04-17T03:28:47.513Z,95693.94
2023-04-17T03:31:32.697Z,95695.56
2023-04-17T03:34:19.090Z,95684.00
2023-04-17T03:37:04.335Z,95688.28
2023-04-17T03:39:49.704Z,95694.38
2023-04-17T03:42:35.023Z,95699.88
2023-04-17T03:45:20.529Z,95704.31
2023-04-17T03:48:07.359Z,95705.97
2023-04-17T03:50:52.595Z,95698.03
2023-04-17T03:53:37.662Z,95695.00
2023-04-17T03:56:23.223Z,95702.50
2023-04-17T03:59:08.413Z,95709.81
2023-04-17T04:01:54.320Z,95705.97
2023-04-17T04:04:39.535Z,95708.19
2023-04-17T04:07:25.107Z,95713.88
2023-04-17T04:10:10.927Z,95719.78
2023-04-17T04:12:56.297Z,95715.28
2023-04-17T04:15:41.688Z,95706.94
2023-04-17T04:18:27.007Z,95715.69
2023-04-17T04:21:12.700Z,95721.19
2023-04-17T04:23:57.709Z,95709.78
2023-04-17T04:26:43.271Z,95706.72
2023-04-17T04:29:28.412Z,95707.75
2023-04-17T04:32:13.663Z,95712.41
2023-04-17T04:35:01.601Z,95714.63
2023-04-17T04:37:46.881Z,95716.88
2023-04-17T04:40:38.332Z,95714.84
2023-04-17T04:43:23.890Z,95713.41
2023-04-17T04:46:10.383Z,95710.16
2023-04-17T04:48:55.654Z,95713.63
2023-04-17T04:51:41.192Z,95716.28
2023-04-17T04:54:26.806Z,95716.47
2023-04-17T04:57:12.009Z,95724.59
2023-04-17T04:59:57.366Z,95718.28
2023-04-17T05:02:42.806Z,95717.47
2023-04-17T05:05:28.168Z,95713.41
2023-04-17T05:08:14.012Z,95711.78
2023-04-17T05:10:59.593Z,95719.13
2023-04-17T05:13:44.703Z,95718.69
2023-04-17T05:16:29.980Z,95716.44
2023-04-17T05:19:15.725Z,95718.69
2023-04-17T05:22:01.122Z,95711.38
2023-04-17T05:24:46.296Z,95711.78
2023-04-17T05:27:31.633Z,95711.38
2023-04-17T05:30:16.982Z,95704.06
2023-04-17T05:33:02.289Z,95711.38
2023-04-17T05:35:47.548Z,95709.72
2023-04-17T05:38:33.104Z,95719.91
2023-04-17T05:41:18.294Z,95720.31
2023-04-17T05:44:03.746Z,95724.38
2023-04-17T05:46:49.244Z,95722.13
2023-04-17T05:49:34.453Z,95726.81
2023-04-17T05:52:19.461Z,95726.63
2023-04-17T05:55:04.952Z,95727.66
2023-04-17T05:57:50.828Z,95721.53
2023-04-17T06:00:36.507Z,95735.38
2023-04-17T06:03:22.076Z,95732.72
2023-04-17T06:06:07.601Z,95728.03
2023-04-17T06:08:54.655Z,95736.59
2023-04-17T06:11:39.975Z,95735.56
2023-04-17T06:14:25.382Z,95736.78
2023-04-17T06:17:12.293Z,95735.31
2023-04-17T06:19:57.576Z,95742.25
2023-04-17T06:22:44.991Z,95729.59
2023-04-17T06:25:30.235Z,95734.91
2023-04-17T06:28:15.807Z,95726.38
2023-04-17T06:31:01.246Z,95733.72
2023-04-17T06:33:47.794Z,95738.56
2023-04-17T06:36:33.376Z,95733.72
2023-04-17T06:39:18.423Z,95739.78
2023-04-17T06:42:03.984Z,95736.53
2023-04-17T06:44:49.184Z,95740.63
2023-04-17T06:47:34.402Z,95743.47
2023-04-17T06:50:19.710Z,95746.94
2023-04-17T06:53:05.787Z,95741.22
2023-04-17T06:55:51.269Z,95746.50
2023-04-17T06:58:42.489Z,95748.94
2023-04-17T07:01:29.275Z,95752.84
2023-04-17T07:04:14.664Z,95753.81
2023-04-17T07:06:59.917Z,95757.28
2023-04-17T07:09:45.848Z,95752.00
2023-04-17T07:12:31.010Z,95756.69
2023-04-17T07:15:16.614Z,95757.91
2023-04-17T07:18:02.139Z,95757.25
2023-04-17T07:20:48.507Z,95762.94
2023-04-17T07:23:33.808Z,95763.38
2023-04-17T07:26:19.244Z,95766.63
2023-04-17T07:29:04.423Z,95767.44
2023-04-17T07:31:49.814Z,95767.03
2023-04-17T07:34:35.059Z,95771.53
2023-04-17T07:37:20.472Z,95772.13
2023-04-17T07:40:10.157Z,95782.31
2023-04-17T07:42:56.991Z,95780.06
2023-04-17T07:45:42.123Z,95775.81
2023-04-17T07:48:27.394Z,95776.81
2023-04-17T07:51:12.714Z,95778.88
2023-04-17T07:53:58.214Z,95778.47
2023-04-17T07:56:46.641Z,95777.22
2023-04-17T07:59:31.902Z,95782.34
2023-04-17T08:02:17.359Z,95793.91
2023-04-17T08:05:03.690Z,95790.66
2023-04-17T08:07:48.894Z,95780.69
2023-04-17T08:10:34.342Z,95784.53
2023-04-17T08:13:19.666Z,95790.47
2023-04-17T08:16:05.433Z,95791.47
2023-04-17T08:18:50.450Z,95786.81
2023-04-17T08:21:36.061Z,95785.16
2023-04-17T08:24:21.521Z,95781.94
2023-04-17T08:27:07.956Z,95787.63
2023-04-17T08:29:56.571Z,95791.09
2023-04-17T08:32:45.153Z,95793.53
2023-04-17T08:35:30.447Z,95796.34
2023-04-17T08:38:15.678Z,95796.56
2023-04-17T08:41:06.273Z,95795.53
2023-04-17T08:43:51.999Z,95800.44
2023-04-17T08:46:38.921Z,95804.47
2023-04-17T08:49:29.484Z,95794.28
2023-04-17T08:52:14.779Z,95806.94
2023-04-17T08:55:01.748Z,95801.00
2023-04-17T08:58:14.666Z,95796.94
2023-04-17T09:01:17.537Z,95796.94
2023-04-17T09:04:03.078Z,95799.56
2023-04-17T09:06:54.270Z,95799.19
2023-04-17T09:09:55.060Z,95804.66
2023-04-17T09:12:42.048Z,95807.72
2023-04-17T09:15:27.438Z,95805.72
2023-04-17T09:18:27.343Z,95807.53
2023-04-17T09:21:14.526Z,95797.13
2023-04-17T09:23:59.753Z,95802.03
2023-04-17T09:26:45.037Z,95798.75
2023-04-17T09:29:30.613Z,95801.56
2023-04-17T09:32:16.420Z,95806.06
2023-04-17T09:35:06.124Z,95806.84
2023-04-17T09:37:52.890Z,95806.03
2023-04-17T09:40:42.194Z,95806.63
2023-04-17T09:43:43.334Z,95807.88
2023-04-17T09:46:33.327Z,95809.28
2023-04-17T09:49:39.518Z,95809.06
2023-04-17T09:52:24.932Z,95812.31
2023-04-17T09:55:11.665Z,95814.97
2023-04-17T09:57:58.455Z,95806.03
2023-04-17T10:00:44.309Z,95806.03
2023-04-17T10:03:29.733Z,95810.50
2023-04-17T10:06:15.729Z,95815.81
2023-04-17T10:09:01.573Z,95814.00
2023-04-17T10:11:47.974Z,95812.38
2023-04-17T10:14:40.134Z,95811.13
2023-04-17T10:17:31.933Z,95807.69
2023-04-17T10:20:20.233Z,95817.84
2023-04-17T10:23:27.112Z,95816.25
2023-04-17T10:26:28.126Z,95811.53
2023-04-17T10:29:13.755Z,95807.06
2023-04-17T10:32:11.386Z,95810.53
2023-04-17T10:35:00.844Z,95810.53
2023-04-17T10:37:51.978Z,95807.66
2023-04-17T10:40:38.453Z,95805.63
2023-04-17T10:43:23.705Z,95808.28
2023-04-17T10:46:12.412Z,95812.75
2023-04-17T10:48:58.105Z,95812.34
2023-04-17T10:51:43.249Z,95806.06
2023-04-17T10:54:32.827Z,95807.28
2023-04-17T10:57:54.181Z,95804.19
2023-04-17T11:00:50.870Z,95810.91
2023-04-17T11:03:37.600Z,95810.72
2023-04-17T11:06:27.313Z,95811.31
2023-04-17T11:09:13.064Z,95816.22
2023-04-17T11:12:01.593Z,95806.22
2023-04-17T11:14:47.344Z,95809.69
2023-04-17T11:17:32.778Z,95807.63
2023-04-17T11:20:23.493Z,95812.13
2023-04-17T11:23:08.841Z,95814.38
2023-04-17T11:25:53.880Z,95812.88
2023-04-17T11:28:39.360Z,95808.78
2023-04-17T11:31:24.986Z,95811.41
2023-04-17T11:34:11.242Z,95801.03
2023-04-17T11:36:58.346Z,95803.03
2023-04-17T11:39:43.327Z,95803.84
2023-04-17T11:42:28.777Z,95815.91
2023-04-17T11:45:13.817Z,95810.78
2023-04-17T11:47:59.210Z,95809.59
2023-04-17T11:50:44.812Z,95811.63
2023-04-17T11:53:30.722Z,95803.47
2023-04-17T11:56:16.117Z,95812.66
2023-04-17T11:59:03.763Z,95809.56
2023-04-17T12:01:53.156Z,95806.94
2023-04-17T12:04:39.944Z,95813.44
2023-04-17T12:07:25.806Z,95806.28
2023-04-17T12:10:11.265Z,95799.19
2023-04-17T12:12:56.668Z,95807.53
2023-04-17T12:15:41.913Z,95808.75
2023-04-17T12:18:27.133Z,95804.06
2023-04-17T12:21:13.345Z,95812.44
2023-04-17T12:23:58.266Z,95808.97
2023-04-17T12:26:47.984Z,95802.63
2023-04-17T12:29:43.700Z,95805.91
2023-04-17T12:32:30.892Z,95812.66
2023-04-17T12:35:16.162Z,95816.50
2023-04-17T12:38:01.519Z,95807.34
2023-04-17T12:40:46.717Z,95810.00
2023-04-17T12:43:33.523Z,95811.63
2023-04-17T12:46:18.792Z,95809.38
2023-04-17T12:49:03.966Z,95795.72
2023-04-17T12:51:49.434Z,95797.56
2023-04-17T12:54:34.599Z,95800.81
2023-04-17T12:57:20.127Z,95799.19
2023-04-17T13:00:09.549Z,95801.25
2023-04-17T13:02:55.104Z,95800.03
2023-04-17T13:05:40.325Z,95796.94
2023-04-17T13:08:25.693Z,95791.00
2023-04-17T13:11:11.189Z,95792.03
2023-04-17T13:13:56.307Z,95785.88
2023-04-17T13:16:41.771Z,95784.66
2023-04-17T13:19:27.405Z,95789.13
2023-04-17T13:22:12.643Z,95785.03
2023-04-17T13:24:59.463Z,95783.75
2023-04-17T13:27:44.749Z,95788.19
2023-04-17T13:30:30.114Z,95780.31
2023-04-17T13:33:15.354Z,95777.09
2023-04-17T13:36:00.679Z,95779.75
2023-04-17T13:38:45.895Z,95780.56
2023-04-17T13:41:31.460Z,95781.19
2023-04-17T13:44:17.593Z,95784.59
2023-04-17T13:47:03.735Z,95788.81
2023-04-17T13:49:49.334Z,95775.78
2023-04-17T13:52:34.374Z,95775.78
2023-04-17T13:55:19.845Z,95784.16
2023-04-17T13:58:04.739Z,95778.09
2023-04-17T14:00:50.141Z,95776.47
2023-04-17T14:03:36.881Z,95775.63
2023-04-17T14:06:24.307Z,95775.19
2023-04-17T14:09:09.727Z,95772.72
2023-04-17T14:11:54.809Z,95772.34
2023-04-17T14:14:39.774Z,95776.81
2023-04-17T14:17:25.231Z,95770.91
2023-04-17T14:20:11.462Z,95762.41
2023-04-17T14:22:56.922Z,95765.44
2023-04-17T14:25:42.862Z,95755.88
2023-04-17T14:28:28.296Z,95762.97
2023-04-17T14:31:13.446Z,95771.09
2023-04-17T14:33:58.838Z,95764.19
2023-04-17T14:36:44.239Z,95761.31
2023-04-17T14:39:31.360Z,95761.75
2023-04-17T14:42:17.306Z,95760.50
2023-04-17T14:45:02.400Z,95767.44
2023-04-17T14:47:47.727Z,95764.19
2023-04-17T14:50:33.808Z,95761.69
2023-04-17T14:53:21.409Z,95757.78
2023-04-17T14:56:08.364Z,95770.25
2023-04-17T14:58:53.615Z,95765.53
2023-04-17T15:01:38.758Z,95765.91
2023-04-17T15:04:24.270Z,95764.34
2023-04-17T15:07:09.568Z,95759.66
2023-04-17T15:09:56.338Z,95757.56
2023-04-17T15:12:41.780Z,95758.00
2023-04-17T15:15:28.550Z,95767.00
2023-04-17T15:18:13.729Z,95762.50
2023-04-17T15:20:59.059Z,95763.75
2023-04-17T15:23:43.874Z,95760.44
2023-04-17T15:26:29.252Z,95764.13
2023-04-17T15:29:14.762Z,95758.88
2023-04-17T15:32:01.734Z,95757.63
2023-04-17T15:34:47.525Z,95764.19
2023-04-17T15:37:32.750Z,95759.28
2023-04-17T15:40:17.992Z,95762.59
2023-04-17T15:43:03.262Z,95766.06
2023-04-17T15:45:49.271Z,95771.19
2023-04-17T15:48:34.798Z,95766.88
2023-04-17T15:51:21.237Z,95767.09
2023-04-17T15:54:06.279Z,95764.66
2023-04-17T15:56:51.427Z,95767.31
2023-04-17T15:59:36.428Z,95769.38
2023-04-17T16:02:21.835Z,95763.28
2023-04-17T16:05:07.490Z,95766.16
2023-04-17T16:07:52.554Z,95771.84
2023-04-17T16:10:37.489Z,95772.22
2023-04-17T16:13:22.757Z,95772.44
2023-04-17T16:16:08.283Z,95767.31
2023-04-17T16:18:53.482Z,95774.84
2023-04-17T16:21:38.576Z,95769.97
2023-04-17T16:24:25.020Z,95776.91
2023-04-17T16:27:10.365Z,95769.97
2023-04-17T16:29:55.712Z,95775.28
2023-04-17T16:32:40.772Z,95779.75
2023-04-17T16:35:26.797Z,95778.13
2023-04-17T16:38:11.884Z,95777.09
2023-04-17T16:40:58.933Z,95774.09
2023-04-17T16:43:44.001Z,95780.19
2023-04-17T16:46:40.201Z,95784.69
2023-04-17T16:49:34.693Z,95783.66
2023-04-17T16:52:19.952Z,95776.34
2023-04-17T16:55:06.323Z,95785.91
2023-04-17T16:57:51.675Z,95792.63
2023-04-17T17:00:36.962Z,95794.84
2023-04-17T17:03:21.938Z,95799.56
2023-04-17T17:06:07.225Z,95800.16
2023-04-17T17:08:53.878Z,95799.28
2023-04-17T17:11:41.022Z,95796.66
2023-04-17T17:14:26.163Z,95802.56
2023-04-17T17:17:11.484Z,95809.09
2023-04-17T17:19:56.751Z,95807.50
2023-04-17T17:22:41.910Z,95811.19
2023-04-17T17:25:27.327Z,95810.38
2023-04-17T17:28:12.324Z,95807.94
2023-04-17T17:31:01.488Z,95812.38
2023-04-17T17:33:50.179Z,95811.53
2023-04-17T17:36:35.658Z,95809.09
2023-04-17T17:39:22.176Z,95811.97
2023-04-17T17:42:08.714Z,95807.50
2023-04-17T17:44:54.116Z,95811.53
2023-04-17T17:47:40.135Z,95811.19
2023-04-17T17:50:25.726Z,95811.53
2023-04-17T17:53:11.302Z,95805.88
2023-04-17T17:55:57.114Z,95807.94
2023-04-17T17:58:42.249Z,95809.53
2023-04-17T18:01:27.258Z,95817.28
2023-04-17T18:04:13.282Z,95813.63
2023-04-17T18:06:59.146Z,95817.50
2023-04-17T18:09:44.482Z,95807.50
2023-04-17T18:12:29.625Z,95824.59
2023-04-17T18:15:14.861Z,95816.84
2023-04-17T18:18:00.517Z,95825.34
2023-04-17T18:20:45.697Z,95824.34
2023-04-17T18:23:31.026Z,95819.88
2023-04-17T18:26:16.241Z,95824.59
2023-04-17T18:29:01.148Z,95818.50
2023-04-17T18:31:46.132Z,95828.31
2023-04-17T18:34:31.337Z,95824.66
2023-04-17T18:37:18.156Z,95826.47
2023-04-17T18:40:03.788Z,95820.00
2023-04-17T18:42:49.064Z,95818.13
2023-04-17T18:45:34.220Z,95821.00
2023-04-17T18:48:19.324Z,95812.88
2023-04-17T18:51:11.851Z,95807.19
2023-04-17T18:53:57.270Z,95819.81
2023-04-17T18:56:43.191Z,95819.19
2023-04-17T18:59:28.708Z,95820.22
2023-04-17T19:02:14.425Z,95817.16
2023-04-17T19:04:59.449Z,95811.44
2023-04-17T19:07:44.703Z,95813.69
2023-04-17T19:10:30.134Z,95812.09
2023-04-17T19:13:15.480Z,95809.66
2023-04-17T19:16:01.048Z,95812.50
2023-04-17T19:18:46.601Z,95815.34
2023-04-17T19:21:32.793Z,95809.03
2023-04-17T19:24:18.059Z,95807.38
2023-04-17T19:27:03.324Z,95810.63
2023-04-17T19:29:48.473Z,95810.00
2023-04-17T19:32:34.029Z,95812.00
2023-04-17T19:35:19.160Z,95807.16
2023-04-17T19:38:04.461Z,95811.00
2023-04-17T19:41:09.790Z,95797.56
2023-04-17T19:43:54.942Z,95801.84
2023-04-17T19:46:40.373Z,95802.25
2023-04-17T19:49:25.773Z,95798.59
2023-04-17T19:52:12.128Z,95796.16
2023-04-17T19:54:57.686Z,95792.91
2023-04-17T19:57:44.794Z,95789.47
2023-04-17T20:00:29.883Z,95794.59
2023-04-17T20:03:15.449Z,95796.63
2023-04-17T20:06:01.085Z,95792.75
2023-04-17T20:08:46.458Z,95791.72
2023-04-17T20:11:32.049Z,95783.38
2023-04-17T20:14:19.557Z,95783.19
2023-04-17T20:17:04.773Z,95787.28
2023-04-17T20:19:49.930Z,95786.03
2023-04-17T20:22:35.898Z,95790.91
2023-04-17T20:25:21.194Z,95787.28
2023-04-17T20:28:06.743Z,95781.16
2023-04-17T20:30:52.011Z,95788.50
2023-04-17T20:33:37.402Z,95784.44
2023-04-17T20:36:22.673Z,95782.78
2023-04-17T20:39:10.850Z,95787.66
2023-04-17T20:41:56.654Z,95779.13
2023-04-17T20:44:41.890Z,95779.94
2023-04-17T20:47:27.157Z,95788.09
2023-04-17T20:50:13.285Z,95785.25
2023-04-17T20:52:58.198Z,95797.50
2023-04-17T20:55:43.852Z,95779.97
2023-04-17T20:58:28.953Z,95784.66
2023-04-17T21:01:15.732Z,95780.75
2023-04-17T21:04:01.046Z,95789.78
2023-04-17T21:06:46.497Z,95786.50
2023-04-17T21:09:31.755Z,95783.25
2023-04-17T21:12:17.237Z,95786.72
2023-04-17T21:15:02.525Z,95792.59
2023-04-17T21:17:48.081Z,95785.47
2023-04-17T21:20:33.293Z,95786.09
2023-04-17T21:23:18.690Z,95797.50
2023-04-17T21:26:04.908Z,95793.59
2023-04-17T21:28:49.877Z,95789.34
2023-04-17T21:31:35.347Z,95792.22
2023-04-17T21:34:20.821Z,95788.53
2023-04-17T21:37:05.938Z,95787.88
2023-04-17T21:39:51.323Z,95789.31
2023-04-17T21:42:36.685Z,95791.38
2023-04-17T21:45:22.057Z,95788.56
2023-04-17T21:48:07.284Z,95789.38
2023-04-17T21:50:55.465Z,95790.41
2023-04-17T21:53:40.629Z,95789.00
2023-04-17T21:56:25.913Z,95783.88
2023-04-17T21:59:11.343Z,95787.16
2023-04-17T22:01:56.773Z,95796.09
2023-04-17T22:04:42.025Z,95803.41
2023-04-17T22:07:27.422Z,95791.81
2023-04-17T22:10:12.649Z,95789.78
2023-04-17T22:12:58.204Z,95794.22
2023-04-17T22:15:44.358Z,95796.88
2023-04-17T22:18:29.721Z,95796.66
2023-04-17T22:21:15.158Z,95800.34
2023-04-17T22:24:00.446Z,95799.09
2023-04-17T22:26:45.763Z,95804.81
2023-04-17T22:29:31.314Z,95800.53
2023-04-17T22:32:16.368Z,95804.63
2023-04-17T22:35:02.553Z,95807.50
2023-04-17T22:37:47.526Z,95808.50
2023-04-17T22:40:33.012Z,95807.50
2023-04-17T22:43:18.186Z,95799.75
2023-04-17T22:46:03.614Z,95812.56
2023-04-17T22:48:49.678Z,95808.88
2023-04-17T22:51:34.842Z,95810.53
2023-04-17T22:54:23.186Z,95810.53
2023-04-17T22:57:10.504Z,95815.00
2023-04-17T22:59:55.413Z,95818.69
2023-04-17T23:02:40.929Z,95816.81
2023-04-17T23:05:26.527Z,95814.19
2023-04-17T23:08:12.112Z,95809.09
2023-04-17T23:10:59.965Z,95811.13
2023-04-17T23:13:45.508Z,95808.47
2023-04-17T23:16:31.084Z,95813.00
2023-04-17T23:19:16.365Z,95810.56
2023-04-17T23:22:02.148Z,95807.28
2023-04-17T23:24:47.526Z,95817.06
2023-04-17T23:27:32.901Z,95814.84
2023-04-17T23:30:18.471Z,95816.88
2023-04-17T23:33:03.537Z,95825.84
2023-04-17T23:35:48.811Z,95817.91
2023-04-17T23:38:34.065Z,95823.41
2023-04-17T23:41:19.541Z,95825.22
2023-04-17T23:44:05.145Z,95826.22
2023-04-17T23:46:50.238Z,95820.75
2023-04-17T23:49:36.033Z,95825.66
2023-04-17T23:52:21.348Z,95829.31
2023-04-17T23:55:07.927Z,95827.50
2023-04-17T23:57:57.229Z,95825.47
